createdAt,value
2023-03-25T00:01:32.941Z,65.13
2023-03-25T00:04:04.614Z,65.13
2023-03-25T00:06:34.753Z,65.15
2023-03-25T00:09:04.931Z,65.17
2023-03-25T00:11:34.616Z,65.10
2023-03-25T00:14:04.892Z,65.05
2023-03-25T00:16:34.429Z,65.10
2023-03-25T00:19:03.753Z,65.07
2023-03-25T00:21:33.562Z,64.98
2023-03-25T00:24:03.121Z,65.01
2023-03-25T00:26:33.186Z,64.99
2023-03-25T00:29:02.434Z,65.00
2023-03-25T00:31:31.759Z,65.00
2023-03-25T00:34:01.023Z,64.98
2023-03-25T00:36:30.691Z,65.00
2023-03-25T00:38:59.984Z,65.01
2023-03-25T00:41:29.454Z,65.02
2023-03-25T00:44:00.745Z,64.98
2023-03-25T00:46:32.497Z,64.98
2023-03-25T00:49:02.228Z,64.92
2023-03-25T00:51:33.849Z,64.96
2023-03-25T00:54:03.341Z,64.92
2023-03-25T00:56:33.342Z,64.91
2023-03-25T00:59:02.876Z,64.91
2023-03-25T01:01:32.915Z,64.84
2023-03-25T01:04:02.324Z,64.78
2023-03-25T01:06:36.705Z,64.81
2023-03-25T01:09:08.218Z,64.79
2023-03-25T01:11:38.609Z,64.78
2023-03-25T01:14:11.533Z,64.75
2023-03-25T01:16:41.844Z,64.75
2023-03-25T01:19:11.484Z,64.74
2023-03-25T01:21:41.536Z,64.72
2023-03-25T01:24:13.197Z,64.73
2023-03-25T01:26:44.758Z,64.73
2023-03-25T01:29:16.183Z,64.69
2023-03-25T01:31:45.714Z,64.65
2023-03-25T01:34:16.122Z,64.65
2023-03-25T01:36:48.882Z,64.64
2023-03-25T01:39:19.796Z,64.60
2023-03-25T01:41:51.512Z,64.60
2023-03-25T01:44:24.202Z,64.64
2023-03-25T01:46:54.600Z,64.57
2023-03-25T01:49:30.453Z,64.60
2023-03-25T01:52:19.311Z,64.51
2023-03-25T01:54:49.462Z,64.55
2023-03-25T01:57:21.632Z,64.50
2023-03-25T01:59:52.748Z,64.54
2023-03-25T02:02:22.568Z,64.53
2023-03-25T02:05:00.726Z,64.51
2023-03-25T02:07:32.909Z,64.47
2023-03-25T02:10:06.640Z,64.47
2023-03-25T02:12:36.186Z,64.46
2023-03-25T02:15:07.739Z,64.47
2023-03-25T02:17:46.706Z,64.44
2023-03-25T02:20:34.757Z,64.42
2023-03-25T02:23:28.457Z,64.42
2023-03-25T02:26:17.559Z,64.46
2023-03-25T02:29:08.106Z,64.44
2023-03-25T02:31:54.886Z,64.43
2023-03-25T02:34:45.848Z,64.41
2023-03-25T02:37:35.416Z,64.40
2023-03-25T02:40:13.545Z,64.43
2023-03-25T02:42:51.767Z,64.44
2023-03-25T02:45:32.751Z,64.40
2023-03-25T02:48:05.500Z,64.40
2023-03-25T02:50:41.483Z,64.41
2023-03-25T02:53:14.437Z,64.43
2023-03-25T02:55:43.240Z,64.39
2023-03-25T02:58:14.349Z,64.39
2023-03-25T03:00:44.335Z,64.37
2023-03-25T03:03:13.842Z,64.41
2023-03-25T03:05:48.130Z,64.37
2023-03-25T03:08:26.474Z,64.37
2023-03-25T03:11:16.345Z,64.42
2023-03-25T03:14:01.103Z,64.35
2023-03-25T03:16:50.201Z,64.30
2023-03-25T03:19:40.898Z,64.35
2023-03-25T03:22:16.974Z,64.36
2023-03-25T03:24:52.963Z,64.33
2023-03-25T03:27:43.706Z,64.31
2023-03-25T03:30:16.674Z,64.32
2023-03-25T03:32:57.820Z,64.33
2023-03-25T03:35:31.678Z,64.30
2023-03-25T03:38:03.733Z,64.31
2023-03-25T03:40:34.941Z,64.24
2023-03-25T03:43:07.380Z,64.27
2023-03-25T03:45:42.676Z,64.25
2023-03-25T03:48:23.960Z,64.27
2023-03-25T03:50:57.998Z,64.27
2023-03-25T03:53:39.118Z,64.28
2023-03-25T03:56:19.561Z,64.29
2023-03-25T03:58:49.775Z,64.27
2023-03-25T04:01:24.076Z,64.27
2023-03-25T04:03:59.171Z,64.24
2023-03-25T04:06:33.335Z,64.21
2023-03-25T04:09:06.532Z,64.21
2023-03-25T04:11:44.451Z,64.19
2023-03-25T04:14:14.888Z,64.22
2023-03-25T04:16:45.920Z,64.21
2023-03-25T04:19:17.008Z,64.19
2023-03-25T04:21:48.903Z,64.17
2023-03-25T04:24:19.776Z,64.19
2023-03-25T04:26:49.998Z,64.15
2023-03-25T04:29:19.372Z,64.18
2023-03-25T04:31:50.105Z,64.16
2023-03-25T04:34:20.719Z,64.06
2023-03-25T04:36:54.858Z,64.06
2023-03-25T04:39:25.755Z,64.08
2023-03-25T04:41:56.595Z,64.00
2023-03-25T04:44:26.129Z,64.02
2023-03-25T04:46:59.237Z,64.06
2023-03-25T04:49:28.520Z,64.02
2023-03-25T04:51:57.983Z,64.00
2023-03-25T04:54:27.349Z,63.98
2023-03-25T04:56:58.552Z,63.98
2023-03-25T04:59:28.212Z,63.99
2023-03-25T05:01:57.674Z,64.02
2023-03-25T05:04:27.130Z,63.96
2023-03-25T05:06:56.911Z,64.02
2023-03-25T05:09:26.828Z,64.04
2023-03-25T05:11:56.409Z,64.00
2023-03-25T05:14:25.699Z,63.96
2023-03-25T05:16:56.648Z,63.95
2023-03-25T05:19:25.936Z,63.92
2023-03-25T05:21:56.334Z,63.94
2023-03-25T05:24:26.331Z,63.95
2023-03-25T05:26:55.641Z,63.94
2023-03-25T05:29:24.963Z,63.91
2023-03-25T05:31:54.349Z,63.89
2023-03-25T05:34:25.674Z,63.92
2023-03-25T05:36:54.992Z,63.95
2023-03-25T05:39:24.431Z,63.89
2023-03-25T05:41:55.373Z,63.87
2023-03-25T05:44:26.278Z,63.87
2023-03-25T05:46:56.545Z,63.85
2023-03-25T05:49:27.231Z,63.88
2023-03-25T05:51:57.064Z,63.87
2023-03-25T05:54:26.553Z,63.85
2023-03-25T05:56:56.158Z,63.83
2023-03-25T05:59:25.931Z,63.87
2023-03-25T06:01:55.221Z,63.87
2023-03-25T06:04:24.912Z,63.83
2023-03-25T06:06:54.188Z,63.85
2023-03-25T06:09:23.648Z,63.86
2023-03-25T06:11:53.711Z,63.80
2023-03-25T06:14:25.111Z,63.84
2023-03-25T06:16:56.016Z,63.83
2023-03-25T06:19:26.534Z,63.82
2023-03-25T06:21:56.061Z,63.78
2023-03-25T06:24:25.374Z,63.78
2023-03-25T06:26:54.653Z,63.78
2023-03-25T06:29:24.206Z,63.79
2023-03-25T06:31:53.506Z,63.77
2023-03-25T06:34:23.751Z,63.79
2023-03-25T06:36:54.189Z,63.81
2023-03-25T06:39:23.513Z,63.72
2023-03-25T06:41:54.095Z,63.73
2023-03-25T06:44:25.401Z,63.72
2023-03-25T06:47:12.564Z,63.70
2023-03-25T06:49:44.096Z,63.70
2023-03-25T06:52:17.456Z,63.72
2023-03-25T06:54:54.105Z,63.71
2023-03-25T06:57:23.556Z,63.68
2023-03-25T07:00:02.790Z,63.33
2023-03-25T07:02:32.869Z,62.81
2023-03-25T07:05:10.410Z,62.50
2023-03-25T07:07:40.492Z,62.54
2023-03-25T07:10:12.963Z,62.54
2023-03-25T07:12:43.401Z,62.62
2023-03-25T07:15:13.399Z,62.75
2023-03-25T07:17:43.357Z,62.78
2023-03-25T07:20:16.879Z,62.76
2023-03-25T07:22:47.354Z,62.77
2023-03-25T07:25:26.735Z,62.72
2023-03-25T07:27:56.331Z,62.83
2023-03-25T07:30:26.057Z,62.81
2023-03-25T07:32:55.366Z,62.93
2023-03-25T07:35:25.106Z,63.03
2023-03-25T07:37:54.399Z,63.04
2023-03-25T07:40:23.968Z,63.09
2023-03-25T07:42:53.282Z,63.09
2023-03-25T07:45:24.321Z,63.15
2023-03-25T07:47:54.389Z,63.08
2023-03-25T07:50:25.296Z,63.13
2023-03-25T07:52:56.133Z,63.09
2023-03-25T07:55:25.858Z,63.07
2023-03-25T07:57:56.393Z,63.17
2023-03-25T08:00:26.068Z,63.19
2023-03-25T08:02:55.636Z,63.30
2023-03-25T08:05:25.404Z,63.29
2023-03-25T08:07:55.535Z,63.30
2023-03-25T08:10:25.441Z,63.38
2023-03-25T08:12:55.186Z,63.36
2023-03-25T08:15:25.044Z,63.53
2023-03-25T08:17:54.506Z,63.63
2023-03-25T08:20:24.382Z,63.66
2023-03-25T08:22:53.763Z,63.60
2023-03-25T08:25:23.424Z,63.62
2023-03-25T08:27:52.852Z,63.61
2023-03-25T08:30:22.991Z,63.67
2023-03-25T08:32:53.964Z,63.69
2023-03-25T08:35:24.750Z,63.69
2023-03-25T08:37:54.056Z,63.82
2023-03-25T08:40:23.411Z,63.72
2023-03-25T08:42:52.873Z,63.78
2023-03-25T08:45:22.195Z,63.81
2023-03-25T08:47:51.650Z,63.80
2023-03-25T08:50:21.397Z,63.86
2023-03-25T08:52:52.401Z,63.91
2023-03-25T08:55:21.758Z,63.91
2023-03-25T08:57:51.278Z,63.90
2023-03-25T09:00:22.741Z,63.92
2023-03-25T09:02:52.115Z,63.94
2023-03-25T09:05:21.988Z,63.97
2023-03-25T09:07:52.781Z,63.98
2023-03-25T09:10:28.341Z,63.97
2023-03-25T09:12:58.945Z,63.97
2023-03-25T09:15:30.279Z,64.05
2023-03-25T09:18:06.263Z,64.04
2023-03-25T09:20:43.570Z,64.06
2023-03-25T09:23:14.709Z,63.98
2023-03-25T09:25:45.288Z,63.81
2023-03-25T09:28:14.643Z,63.70
2023-03-25T09:30:44.276Z,63.55
2023-03-25T09:33:14.161Z,63.51
2023-03-25T09:35:43.897Z,63.48
2023-03-25T09:38:13.764Z,63.43
2023-03-25T09:40:44.210Z,63.51
2023-03-25T09:43:35.266Z,63.47
2023-03-25T09:46:05.338Z,63.36
2023-03-25T09:48:57.376Z,63.44
2023-03-25T09:51:31.724Z,63.54
2023-03-25T09:54:16.528Z,63.42
2023-03-25T09:56:46.297Z,63.42
2023-03-25T09:59:19.040Z,63.41
2023-03-25T10:02:11.142Z,63.38
2023-03-25T10:05:00.654Z,63.11
2023-03-25T10:07:54.290Z,63.03
2023-03-25T10:10:51.520Z,63.02
2023-03-25T10:13:30.472Z,62.98
2023-03-25T10:16:09.306Z,62.94
2023-03-25T10:18:56.789Z,62.93
2023-03-25T10:21:41.875Z,62.81
2023-03-25T10:24:28.995Z,62.76
2023-03-25T10:27:18.191Z,62.75
2023-03-25T10:29:56.767Z,62.65
2023-03-25T10:32:44.920Z,62.69
2023-03-25T10:35:20.371Z,62.63
2023-03-25T10:37:52.792Z,62.61
2023-03-25T10:40:31.332Z,62.61
2023-03-25T10:43:26.294Z,62.65
2023-03-25T10:46:05.216Z,62.58
2023-03-25T10:48:34.984Z,62.58
2023-03-25T10:51:12.567Z,62.54
2023-03-25T10:53:42.552Z,62.50
2023-03-25T10:56:23.769Z,62.43
2023-03-25T10:58:55.970Z,62.40
2023-03-25T11:01:39.431Z,62.37
2023-03-25T11:04:11.461Z,62.39
2023-03-25T11:06:42.695Z,62.36
2023-03-25T11:09:26.807Z,62.42
2023-03-25T11:11:56.103Z,62.37
2023-03-25T11:14:27.891Z,62.32
2023-03-25T11:17:04.234Z,62.30
2023-03-25T11:19:54.707Z,62.27
2023-03-25T11:22:29.604Z,62.27
2023-03-25T11:25:14.422Z,62.34
2023-03-25T11:27:47.207Z,62.26
2023-03-25T11:30:17.514Z,62.34
2023-03-25T11:32:59.417Z,62.27
2023-03-25T11:35:31.450Z,62.27
2023-03-25T11:38:03.086Z,62.26
2023-03-25T11:40:33.899Z,62.19
2023-03-25T11:43:04.449Z,62.31
2023-03-25T11:45:37.758Z,62.25
2023-03-25T11:48:19.132Z,62.24
2023-03-25T11:50:56.796Z,62.22
2023-03-25T11:53:27.985Z,62.29
2023-03-25T11:56:00.437Z,62.17
2023-03-25T11:58:33.288Z,62.09
2023-03-25T12:01:05.950Z,61.97
2023-03-25T12:03:36.414Z,61.94
2023-03-25T12:06:09.157Z,61.95
2023-03-25T12:08:45.125Z,61.85
2023-03-25T12:11:17.651Z,61.78
2023-03-25T12:14:04.696Z,61.88
2023-03-25T12:16:46.056Z,61.88
2023-03-25T12:19:24.454Z,61.95
2023-03-25T12:21:57.119Z,62.03
2023-03-25T12:24:53.670Z,61.74
2023-03-25T12:27:35.315Z,61.40
2023-03-25T12:30:08.329Z,61.77
2023-03-25T12:32:46.620Z,61.49
2023-03-25T12:35:45.288Z,61.50
2023-03-25T12:38:23.608Z,61.62
2023-03-25T12:41:10.078Z,61.56
2023-03-25T12:43:48.050Z,61.63
2023-03-25T12:46:23.961Z,61.68
2023-03-25T12:49:14.537Z,61.63
2023-03-25T12:52:05.487Z,61.54
2023-03-25T12:54:43.543Z,61.70
2023-03-25T12:57:32.857Z,58.84
2023-03-25T13:00:14.976Z,58.70
2023-03-25T13:03:13.155Z,58.70
2023-03-25T13:05:49.056Z,59.34
2023-03-25T13:08:30.844Z,59.70
2023-03-25T13:11:06.442Z,59.89
2023-03-25T13:13:37.200Z,59.99
2023-03-25T13:16:13.203Z,57.37
